Time;durP1;ratioP1;P1;durP2;ratioP2;P2;SDS_P1;SDS_P2;PMS_P1;PMS_P2;Temp;Humidity;BMP_temperature;BMP_pressure;BME280_temperature;BME280_humidity;BME280_pressure;Samples;Min_cycle;Max_cycle;Signal;HPM_P1;HPM_P2
2023/07/07 00:02:01;;;;;;;6.50;3.55;;;;;;;;;;4915450;29;20036;-86
2023/07/07 00:04:28;;;;;;;7.63;2.97;;;;;;;;;;4906142;29;20063;-85
2023/07/07 00:06:54;;;;;;;7.00;3.60;;;;;;;;;;4900300;29;20526;-83
2023/07/07 00:09:20;;;;;;;10.65;3.53;;;;;;;;;;4909968;29;20024;-88
2023/07/07 00:11:46;;;;;;;6.50;3.40;;;;;;;;;;4923928;29;20036;-82
2023/07/07 00:14:12;;;;;;;6.15;3.30;;;;;;;;;;4904557;29;20032;-84
2023/07/07 00:16:38;;;;;;;8.13;3.15;;;;;;;;;;4906669;29;20072;-88
2023/07/07 00:19:09;;;;;;;5.88;3.53;;;;;;;;;;4907477;29;20032;-84
2023/07/07 00:21:40;;;;;;;5.65;3.10;;;;;;;;;;4909020;29;20028;-85
2023/07/07 00:24:07;;;;;;;5.03;3.22;;;;;;;;;;4909337;29;20025;-85
2023/07/07 00:26:33;;;;;;;8.55;3.38;;;;;;;;;;4908912;29;20029;-84
2023/07/07 00:29:00;;;;;;;6.40;3.78;;;16.50;99.90;;;;;;4908540;29;20032;-85
2023/07/07 00:31:26;;;;;;;4.72;3.30;;;;;;;;;;4907557;29;20043;-85
2023/07/07 00:33:52;;;;;;;5.43;3.30;;;;;;;;;;4910082;29;20031;-86
2023/07/07 00:36:18;;;;;;;6.32;3.35;;;;;;;;;;4907079;29;20056;-86
2023/07/07 00:38:44;;;;;;;13.88;3.60;;;;;;;;;;4918736;29;20052;-83
2023/07/07 00:41:10;;;;;;;5.43;3.40;;;;;;;;;;4909244;29;20033;-82
2023/07/07 00:43:37;;;;;;;6.03;3.60;;;;;;;;;;4912227;29;20061;-84
2023/07/07 00:46:03;;;;;;;5.32;3.15;;;;;;;;;;4908478;29;20040;-84
2023/07/07 00:48:29;;;;;;;5.22;3.33;;;;;;;;;;4906013;29;20081;-86
2023/07/07 00:51:00;;;;;;;6.13;3.25;;;16.20;99.90;;;;;;4906101;29;20483;-87
2023/07/07 00:53:26;;;;;;;;;;;16.10;99.90;;;;;;4907527;29;20032;-87
2023/07/07 00:55:57;;;;;;;7.45;3.33;;;16.10;99.90;;;;;;4912178;29;19918;-83
2023/07/07 00:58:25;;;;;;;6.57;3.40;;;16.00;99.90;;;;;;4903415;29;20041;-86
2023/07/07 01:00:53;;;;;;;6.97;3.60;;;;;;;;;;4905234;29;20025;-89
2023/07/07 01:03:24;;;;;;;6.72;3.78;;;16.10;99.90;;;;;;4907782;29;20032;-87
2023/07/07 01:05:50;;;;;;;8.13;3.33;;;;;;;;;;4920058;29;20028;-86
2023/07/07 01:08:17;;;;;;;7.70;3.70;;;;;;;;;;4902618;29;20028;-86
2023/07/07 01:10:43;;;;;;;6.25;3.38;;;;;;;;;;4905771;29;20065;-85
2023/07/07 01:13:09;;;;;;;5.50;3.03;;;;;;;;;;4906554;29;20036;-87
2023/07/07 01:15:43;;;;;;;9.05;3.15;;;16.10;99.90;;;;;;4907473;29;20040;-86
2023/07/07 01:18:32;;;;;;;6.05;3.10;;;;;;;;;;4903999;29;20077;-86
2023/07/07 01:21:04;;;;;;;6.68;3.00;;;;;;;;;;4891509;29;20124;-86
2023/07/07 01:23:51;;;;;;;6.50;3.53;;;;;;;;;;4910579;29;20029;-87
2023/07/07 01:26:17;;;;;;;6.43;3.30;;;;;;;;;;4904039;29;20029;-84
2023/07/07 01:28:53;;;;;;;5.93;3.30;;;;;;;;;;4898936;29;20044;-88
2023/07/07 01:31:28;;;;;;;5.68;3.17;;;;;;;;;;4903929;29;20092;-88
2023/07/07 01:33:54;;;;;;;7.38;2.97;;;;;;;;;;4918144;29;20519;-82
2023/07/07 01:36:20;;;;;;;8.60;3.28;;;;;;;;;;4920514;29;20056;-85
2023/07/07 01:38:47;;;;;;;5.07;3.03;;;;;;;;;;4903463;29;20103;-87
2023/07/07 01:41:16;;;;;;;6.32;3.40;;;;;;;;;;4909981;29;20080;-86
2023/07/07 01:43:51;;;;;;;6.90;3.33;;;;;;;;;;4907952;29;20024;-87
2023/07/07 01:46:23;;;;;;;4.90;2.95;;;;;;;;;;4898702;29;20025;-86
2023/07/07 01:48:54;;;;;;;8.93;3.40;;;;;;;;;;4906104;29;20056;-88
2023/07/07 01:51:23;;;;;;;5.10;3.03;;;;;;;;;;4909357;29;20061;-86
2023/07/07 01:53:51;;;;;;;5.78;3.00;;;;;;;;;;4909855;29;20057;-88
2023/07/07 01:56:20;;;;;;;5.70;3.13;;;;;;;;;;4908208;29;20151;-86
2023/07/07 01:58:46;;;;;;;5.30;2.67;;;;;;;;;;4912203;29;20036;-87
2023/07/07 02:01:12;;;;;;;5.82;3.00;;;;;;;;;;4910194;29;20057;-85
2023/07/07 02:03:39;;;;;;;5.97;3.33;;;;;;;;;;4925678;29;20027;-85
2023/07/07 02:06:05;;;;;;;6.05;3.55;;;;;;;;;;4912181;29;20029;-85
2023/07/07 02:08:32;;;;;;;5.60;3.28;;;;;;;;;;4906653;29;20040;-84
2023/07/07 02:10:58;;;;;;;5.32;3.80;;;;;;;;;;4910869;29;20035;-84
2023/07/07 02:13:24;;;;;;;13.73;3.60;;;;;;;;;;4906701;29;20036;-83
2023/07/07 02:15:51;;;;;;;9.80;4.50;;;;;;;;;;4910844;29;20437;-87
2023/07/07 02:18:18;;;;;;;6.47;3.80;;;;;;;;;;4910317;29;20036;-84
2023/07/07 02:20:44;;;;;;;9.50;4.20;;;;;;;;;;4909996;29;20032;-87
2023/07/07 02:23:10;;;;;;;6.30;3.90;;;;;;;;;;4909686;29;20545;-86
2023/07/07 02:25:36;;;;;;;7.72;4.20;;;;;;;;;;4909805;29;20028;-86
2023/07/07 02:28:02;;;;;;;7.75;4.00;;;;;;;;;;4903028;29;20067;-86
2023/07/07 02:30:28;;;;;;;8.95;4.43;;;;;;;;;;4910852;29;20125;-85
2023/07/07 02:32:57;;;;;;;11.38;4.50;;;;;;;;;;4910117;29;20104;-86
2023/07/07 02:35:23;;;;;;;7.75;4.22;;;;;;;;;;4915500;29;20025;-86
2023/07/07 02:37:49;;;;;;;5.93;3.55;;;;;;;;;;4902713;29;20489;-85
2023/07/07 02:40:15;;;;;;;8.30;3.72;;;;;;;;;;4909922;29;20024;-86
2023/07/07 02:42:41;;;;;;;6.60;3.10;;;;;;;;;;4914553;29;20040;-84
2023/07/07 02:45:08;;;;;;;9.07;3.38;;;;;;;;;;4909908;29;20105;-86
2023/07/07 02:47:34;;;;;;;6.60;3.25;;;;;;;;;;4909063;29;20032;-86
2023/07/07 02:50:00;;;;;;;6.95;3.00;;;;;;;;;;4907863;29;20037;-85
2023/07/07 02:52:26;;;;;;;5.88;3.67;;;;;;;;;;4904489;29;20040;-84
2023/07/07 02:54:52;;;;;;;4.57;2.80;;;;;;;;;;4907697;29;20541;-83
2023/07/07 02:57:19;;;;;;;6.10;3.20;;;;;;;;;;4909193;29;20519;-87
2023/07/07 02:59:45;;;;;;;6.55;2.95;;;;;;;;;;4912263;29;20413;-87
2023/07/07 03:02:11;;;;;;;5.28;3.15;;;;;;;;;;4908488;29;20126;-88
2023/07/07 03:04:37;;;;;;;6.13;3.15;;;;;;;;;;4905891;29;20029;-89
2023/07/07 03:07:03;;;;;;;5.53;3.22;;;;;;;;;;4907919;29;20043;-86
2023/07/07 03:09:29;;;;;;;5.22;3.38;;;;;;;;;;4905389;29;20028;-87
2023/07/07 03:11:55;;;;;;;4.65;2.75;;;;;;;;;;4904069;29;20032;-89
2023/07/07 03:14:21;;;;;;;7.35;3.70;;;;;;;;;;4899175;29;20092;-84
2023/07/07 03:16:51;;;;;;;5.55;3.40;;;;;;;;;;4905629;29;20033;-87
2023/07/07 03:19:17;;;;;;;5.93;3.50;;;;;;;;;;4903494;29;20404;-86
2023/07/07 03:21:43;;;;;;;7.30;3.90;;;;;;;;;;4902254;29;20028;-85
2023/07/07 03:24:09;;;;;;;6.85;4.18;;;;;;;;;;4903585;29;20124;-88
2023/07/07 03:26:35;;;;;;;6.97;3.50;;;;;;;;;;4893816;29;20097;-86
2023/07/07 03:29:01;;;;;;;5.60;3.60;;;;;;;;;;4903474;29;20053;-89
2023/07/07 03:31:30;;;;;;;7.90;3.45;;;14.90;99.90;;;;;;4904923;29;20033;-86
2023/07/07 03:33:57;;;;;;;5.13;2.83;;;;;;;;;;4906998;29;20409;-85
2023/07/07 03:36:25;;;;;;;7.03;3.92;;;;;;;;;;4911153;29;20096;-85
2023/07/07 03:38:52;;;;;;;7.00;3.60;;;;;;;;;;4906623;29;20033;-86
2023/07/07 03:41:20;;;;;;;8.10;3.97;;;14.90;99.90;;;;;;4907857;29;20024;-85
2023/07/07 03:43:47;;;;;;;6.47;3.90;;;;;;;;;;4902943;29;20025;-85
2023/07/07 03:46:15;;;;;;;9.13;4.55;;;;;;;;;;4910576;29;20029;-87
2023/07/07 03:48:41;;;;;;;6.10;4.30;;;;;;;;;;4907661;29;20044;-87
2023/07/07 03:51:07;;;;;;;5.85;4.00;;;;;;;;;;4908617;29;20067;-86
2023/07/07 03:53:34;;;;;;;7.55;4.28;;;;;;;;;;4907936;29;20028;-87
2023/07/07 03:56:00;;;;;;;6.78;3.95;;;;;;;;;;4907273;29;20060;-87
2023/07/07 03:58:29;;;;;;;5.90;3.90;;;14.80;99.90;;;;;;4907204;29;20108;-85
2023/07/07 04:01:00;;;;;;;6.90;3.65;;;;;;;;;;4904854;29;20532;-87
2023/07/07 04:03:26;;;;;;;;;;;14.80;99.90;;;;;;4908064;29;20480;-87
2023/07/07 04:05:54;;;;;;;8.32;3.03;;;14.80;99.90;;;;;;4911531;29;20045;-87
2023/07/07 04:08:24;;;;;;;9.38;3.10;;;;;;;;;;4908857;29;20057;-85
2023/07/07 04:11:16;;;;;;;7.53;2.75;;;14.80;99.90;;;;;;4907726;29;20071;-89
2023/07/07 04:13:44;;;;;;;5.53;2.88;;;14.70;99.90;;;;;;4907139;29;20029;-87
2023/07/07 04:16:16;;;;;;;7.68;3.17;;;14.80;99.90;;;;;;4909651;29;20128;-86
2023/07/07 04:18:43;;;;;;;4.50;2.75;;;;;;;;;;4902711;29;20025;-87
2023/07/07 04:21:10;;;;;;;5.32;2.75;;;;;;;;;;4917894;29;20037;-89
2023/07/07 04:23:41;;;;;;;5.55;2.83;;;14.90;99.90;;;;;;4900982;29;20097;-86
2023/07/07 04:26:07;;;;;;;5.22;3.38;;;;;;;;;;4918843;29;20032;-86
2023/07/07 04:28:35;;;;;;;8.82;3.80;;;;;;;;;;4919369;29;20043;-87
2023/07/07 04:31:04;;;;;;;11.35;4.15;;;;;;;;;;4920602;29;20012;-87
2023/07/07 04:33:30;;;;;;;9.40;4.00;;;;;;;;;;4919442;29;20021;-86
2023/07/07 04:35:59;;;;;;;9.55;4.18;;;14.90;99.90;;;;;;4919523;29;20113;-88
2023/07/07 04:38:32;;;;;;;6.85;3.67;;;15.00;99.90;;;;;;4916440;29;20040;-85
2023/07/07 04:41:13;;;;;;;6.25;2.97;;;15.00;99.90;;;;;;4917855;29;20036;-86
2023/07/07 04:43:45;;;;;;;8.73;4.10;;;15.10;99.90;;;;;;4915264;29;20021;-86
2023/07/07 04:46:14;;;;;;;6.55;3.30;;;15.10;99.90;;;;;;4919646;29;20052;-87
2023/07/07 04:48:40;;;;;;;5.43;3.15;;;;;;;;;;4920351;29;20020;-85
2023/07/07 04:51:07;;;;;;;8.40;3.85;;;;;;;;;;4916195;29;20047;-85
2023/07/07 04:53:33;;;;;;;6.00;3.67;;;;;;;;;;4917530;29;20043;-86
2023/07/07 04:56:02;;;;;;;6.00;3.03;;;;;;;;;;4920315;29;20016;-85
2023/07/07 04:58:28;;;;;;;5.43;2.50;;;;;;;;;;4908245;29;20137;-84
2023/07/07 05:01:08;;;;;;;4.90;2.85;;;15.40;99.90;;;;;;4917112;29;20057;-88
2023/07/07 05:03:34;;;;;;;6.13;3.30;;;;;;;;;;4905832;29;20028;-85
2023/07/07 05:06:03;;;;;;;5.60;3.15;;;15.50;99.90;;;;;;4903660;29;20124;-87
2023/07/07 05:08:40;;;;;;;6.07;3.10;;;;;;;;;;4903981;29;20825;-86
2023/07/07 05:11:07;;;;;;;4.45;2.78;;;;;;;;;;4903023;29;20045;-86
2023/07/07 05:13:33;;;;;;;5.18;2.95;;;;;;;;;;4907196;29;20025;-86
2023/07/07 05:16:07;;;;;;;7.20;2.85;;;;;;;;;;4909663;29;20005;-83
2023/07/07 05:18:34;;;;;;;7.55;3.58;;;;;;;;;;4921822;29;20048;-85
2023/07/07 05:21:00;;;;;;;5.90;3.15;;;;;;;;;;4919111;29;20012;-87
2023/07/07 05:23:26;;;;;;;6.93;3.17;;;;;;;;;;4916248;29;20052;-85
2023/07/07 05:25:52;;;;;;;4.70;2.95;;;;;;;;;;4929940;28;20033;-84
2023/07/07 05:28:19;;;;;;;5.30;2.80;;;;;;;;;;4905359;29;20065;-84
2023/07/07 05:30:45;;;;;;;4.68;2.70;;;;;;;;;;4908522;29;20033;-84
2023/07/07 05:33:13;;;;;;;5.35;2.53;;;;;;;;;;4907493;29;20045;-82
2023/07/07 05:35:46;;;;;;;6.88;2.95;;;19.90;98.00;;;;;;4902489;29;20029;-84
2023/07/07 05:38:12;;;;;;;7.25;3.25;;;;;;;;;;4901793;29;20036;-86
2023/07/07 05:40:42;;;;;;;5.80;2.75;;;;;;;;;;4904329;29;20114;-84
2023/07/07 05:43:08;;;;;;;3.83;2.35;;;;;;;;;;4903218;29;20033;-82
2023/07/07 05:45:34;;;;;;;6.32;2.70;;;;;;;;;;4904912;29;20041;-83
2023/07/07 05:48:00;;;;;;;3.92;2.60;;;;;;;;;;4907964;29;20096;-86
2023/07/07 05:50:26;;;;;;;7.68;2.78;;;;;;;;;;4905762;29;20059;-85
2023/07/07 05:52:52;;;;;;;8.73;2.80;;;;;;;;;;4892256;29;20047;-84
2023/07/07 05:55:28;;;;;;;4.93;2.58;;;21.70;92.40;;;;;;4904502;29;20045;-86
2023/07/07 05:57:55;;;;;;;5.18;2.47;;;;;;;;;;4906730;29;20029;-86
2023/07/07 06:00:21;;;;;;;4.90;2.63;;;;;;;;;;4901530;29;20045;-83
2023/07/07 06:02:47;;;;;;;5.45;2.58;;;;;;;;;;4903579;29;20031;-85
2023/07/07 06:05:13;;;;;;;9.70;2.60;;;;;;;;;;4904305;29;20120;-86
2023/07/07 06:07:39;;;;;;;8.10;2.13;;;;;;;;;;4903054;29;20044;-87
2023/07/07 06:10:06;;;;;;;4.88;2.05;;;;;;;;;;4904894;29;20095;-85
2023/07/07 06:12:35;;;;;;;7.43;2.70;;;;;;;;;;4905430;29;20028;-86
2023/07/07 06:15:01;;;;;;;8.20;2.42;;;;;;;;;;4905197;29;20040;-85
2023/07/07 06:17:27;;;;;;;4.28;2.53;;;;;;;;;;4903424;29;20504;-85
2023/07/07 06:19:53;;;;;;;5.00;2.40;;;;;;;;;;4903495;29;20036;-82
2023/07/07 06:22:22;;;;;;;4.53;2.22;;;;;;;;;;4908157;29;20104;-86
2023/07/07 06:24:48;;;;;;;5.43;2.22;;;;;;;;;;4902814;29;20040;-85
2023/07/07 06:27:14;;;;;;;4.50;2.22;;;;;;;;;;4901935;29;20060;-83
2023/07/07 06:29:43;;;;;;;5.85;2.40;;;;;;;;;;4901449;29;20049;-85
2023/07/07 06:32:09;;;;;;;4.85;2.60;;;;;;;;;;4903206;29;20032;-85
2023/07/07 06:34:35;;;;;;;7.22;2.85;;;;;;;;;;4905042;29;20020;-85
2023/07/07 06:37:01;;;;;;;5.10;2.60;;;;;;;;;;4903852;29;20056;-84
2023/07/07 06:39:28;;;;;;;5.43;3.00;;;;;;;;;;4906731;29;20028;-84
2023/07/07 06:41:54;;;;;;;6.35;2.08;;;;;;;;;;4907359;29;20107;-83
2023/07/07 06:44:20;;;;;;;4.53;2.80;;;;;;;;;;4906094;29;20029;-86
2023/07/07 06:46:47;;;;;;;6.60;2.28;;;;;;;;;;4903615;29;20429;-82
2023/07/07 06:49:13;;;;;;;5.65;2.47;;;;;;;;;;4898696;29;20028;-85
2023/07/07 06:51:40;;;;;;;8.80;2.40;;;;;;;;;;4945205;23;20044;-83
2023/07/07 06:54:06;;;;;;;5.53;2.03;;;;;;;;;;4916810;29;20036;-83
2023/07/07 06:56:32;;;;;;;5.35;2.47;;;;;;;;;;4927556;29;20055;-83
2023/07/07 06:58:58;;;;;;;8.07;2.30;;;;;;;;;;4929026;29;20046;-82
2023/07/07 07:01:24;;;;;;;9.50;2.20;;;;;;;;;;4934230;29;20063;-81
2023/07/07 07:03:50;;;;;;;5.95;2.28;;;;;;;;;;4935200;29;20036;-83
2023/07/07 07:06:16;;;;;;;4.00;2.08;;;;;;;;;;4929957;29;20039;-82
2023/07/07 07:08:44;;;;;;;7.43;2.50;;;;;;;;;;4933008;29;20036;-82
2023/07/07 07:11:15;;;;;;;6.07;2.28;;;;;;;;;;4926600;29;20024;-82
2023/07/07 07:13:41;;;;;;;5.18;2.33;;;;;;;;;;4933074;29;20032;-82
2023/07/07 07:16:07;;;;;;;7.00;2.60;;;;;;;;;;4930834;29;20048;-82
2023/07/07 07:18:33;;;;;;;3.63;2.10;;;;;;;;;;4917196;29;20032;-82
2023/07/07 07:20:59;;;;;;;4.25;2.05;;;;;;;;;;4914931;29;20024;-83
2023/07/07 07:23:25;;;;;;;4.50;2.17;;;;;;;;;;4931732;29;20039;-83
2023/07/07 07:25:52;;;;;;;4.82;2.10;;;;;;;;;;4930739;29;20048;-82
2023/07/07 07:28:18;;;;;;;7.25;2.25;;;;;;;;;;4930272;29;20028;-82
2023/07/07 07:30:46;;;;;;;5.75;2.35;;;;;;;;;;4916262;29;20024;-81
2023/07/07 07:33:21;;;;;;;6.15;2.13;;;;;;;;;;4926235;29;20031;-83
2023/07/07 07:35:47;;;;;;;3.58;2.45;;;;;;;;;;4932928;29;20474;-83
2023/07/07 07:38:17;;;;;;;6.22;2.50;;;;;;;;;;4935385;29;20023;-82
2023/07/07 07:40:46;;;;;;;5.40;2.38;;;;;;;;;;4919837;29;20059;-81
2023/07/07 07:43:13;;;;;;;3.75;2.03;;;;;;;;;;4938236;29;20004;-83
2023/07/07 07:45:39;;;;;;;5.43;2.45;;;;;;;;;;4936088;29;20020;-81
2023/07/07 07:48:06;;;;;;;3.45;2.00;;;;;;;;;;4917511;29;20029;-83
2023/07/07 07:50:33;;;;;;;5.00;2.30;;;;;;;;;;4904069;29;20070;-83
2023/07/07 07:53:03;;;;;;;4.90;2.17;;;;;;;;;;4934416;29;20008;-82
2023/07/07 07:55:33;;;;;;;4.53;2.30;;;;;;;;;;4935175;29;20039;-83
2023/07/07 07:57:59;;;;;;;4.27;2.40;;;;;;;;;;4942541;29;20103;-83
2023/07/07 08:00:25;;;;;;;4.65;2.10;;;;;;;;;;4931908;29;20388;-83
2023/07/07 08:02:51;;;;;;;4.05;2.33;;;;;;;;;;4931082;29;20032;-84
2023/07/07 08:05:19;;;;;;;5.97;2.10;;;;;;;;;;4933864;29;20028;-82
2023/07/07 08:07:46;;;;;;;3.58;2.30;;;;;;;;;;4933499;29;20047;-82
2023/07/07 08:10:12;;;;;;;3.97;2.30;;;;;;;;;;4935561;29;20092;-82
2023/07/07 08:12:38;;;;;;;3.92;2.03;;;;;;;;;;4919296;29;20052;-82
2023/07/07 08:15:05;;;;;;;5.47;2.40;;;;;;;;;;4937546;29;20032;-83
2023/07/07 08:17:32;;;;;;;3.75;1.90;;;;;;;;;;4916842;29;20043;-82
2023/07/07 08:19:59;;;;;;;6.70;2.22;;;;;;;;;;4925253;29;20531;-84
2023/07/07 08:22:41;;;;;;;5.30;2.10;;;;;;;;;;4928251;29;20031;-81
2023/07/07 08:25:07;;;;;;;5.82;2.42;;;;;;;;;;4934422;29;20629;-85
2023/07/07 08:27:34;;;;;;;5.75;2.42;;;;;;;;;;4938503;29;20040;-80
2023/07/07 08:30:00;;;;;;;5.28;2.45;;;;;;;;;;4924543;29;20080;-83
2023/07/07 08:32:28;;;;;;;4.35;2.17;;;;;;;;;;4926642;29;20530;-82
2023/07/07 08:34:55;;;;;;;7.55;2.10;;;;;;;;;;4927741;29;20059;-83
2023/07/07 08:37:21;;;;;;;6.05;2.50;;;;;;;;;;4926894;29;20028;-83
2023/07/07 08:39:52;;;;;;;4.75;2.08;;;;;;;;;;4924870;29;20044;-83
2023/07/07 08:42:27;;;;;;;4.32;2.50;;;;;;;;;;4914431;29;20396;-83
2023/07/07 08:44:54;;;;;;;5.75;2.53;;;;;;;;;;4931681;29;20028;-83
2023/07/07 08:47:23;;;;;;;7.53;2.30;;;;;;;;;;4923270;29;20028;-83
2023/07/07 08:49:53;;;;;;;7.15;2.35;;;;;;;;;;4928352;29;20031;-82
2023/07/07 08:52:19;;;;;;;7.18;2.45;;;;;;;;;;4912160;29;20040;-83
2023/07/07 08:54:50;;;;;;;7.40;2.40;;;;;;;;;;4926668;29;20032;-81
2023/07/07 08:57:18;;;;;;;6.00;2.50;;;;;;;;;;4909654;29;20029;-83
2023/07/07 08:59:47;;;;;;;5.78;2.55;;;;;;;;;;4911926;29;20028;-83
2023/07/07 09:02:23;;;;;;;5.32;2.45;;;;;;;;;;4930916;29;20063;-83
2023/07/07 09:04:49;;;;;;;6.30;2.30;;;;;;;;;;4911841;29;20508;-82
2023/07/07 09:07:27;;;;;;;4.13;2.42;;;;;;;;;;4912281;29;20024;-83
2023/07/07 09:10:08;;;;;;;5.28;2.58;;;;;;;;;;4906693;29;20118;-83
2023/07/07 09:12:46;;;;;;;4.15;2.50;;;;;;;;;;4932118;29;20028;-83
2023/07/07 09:15:32;;;;;;;5.53;2.15;;;;;;;;;;4922964;29;20051;-83
2023/07/07 09:18:20;;;;;;;4.70;2.65;;;;;;;;;;4930212;29;20063;-83
2023/07/07 09:20:47;;;;;;;4.55;2.55;;;;;;;;;;4928889;29;20075;-83
2023/07/07 09:23:17;;;;;;;4.75;2.60;;;;;;;;;;4915072;29;20048;-80
2023/07/07 09:25:48;;;;;;;4.82;2.63;;;;;;;;;;4928728;29;20020;-81
2023/07/07 09:28:15;;;;;;;11.35;3.15;;;;;;;;;;4920332;29;20032;-83
2023/07/07 09:30:49;;;;;;;5.93;2.67;;;;;;;;;;4914469;29;20024;-83
2023/07/07 09:33:29;;;;;;;4.63;2.58;;;;;;;;;;4932120;29;20084;-83
2023/07/07 09:36:11;;;;;;;;;;;;;;;;;;;;;
2023/07/07 09:38:39;;;;;;;4.05;2.45;;;;;;;;;;4924981;29;20096;-81
2023/07/07 09:41:36;;;;;;;5.13;2.58;;;;;;;;;;4927502;29;20039;-81
2023/07/07 09:44:36;;;;;;;4.25;2.40;;;27.20;68.50;;;;;;4917669;29;20032;-83
2023/07/07 09:47:15;;;;;;;5.60;3.15;;;;;;;;;;4933473;29;20036;-83
2023/07/07 09:49:44;;;;;;;6.53;3.10;;;;;;;;;;4922436;29;20024;-81
2023/07/07 09:52:22;;;;;;;4.90;2.75;;;;;;;;;;4909811;29;20036;-82
2023/07/07 09:54:52;;;;;;;5.30;2.50;;;;;;;;;;4924874;29;20420;-81
2023/07/07 09:57:37;;;;;;;6.55;2.55;;;;;;;;;;4908868;29;20108;-82
2023/07/07 10:03:32;;;;;;;4.53;2.47;;;;;;;;;;4868829;29;20541;-80
2023/07/07 10:06:32;;;;;;;5.03;2.67;;;;;;;;;;4870223;29;20128;-81
2023/07/07 10:09:21;;;;;;;5.70;2.80;;;;;;;;;;4839823;29;20362;-82
2023/07/07 10:11:50;;;;;;;4.75;2.25;;;;;;;;;;4907970;29;20104;-81
2023/07/07 10:14:19;;;;;;;4.45;2.88;;;;;;;;;;4928619;29;20024;-81
2023/07/07 10:17:30;;;;;;;4.18;2.78;;;;;;;;;;4928955;29;20087;-81
2023/07/07 10:26:05;;;;;;;5.82;2.80;;;;;;;;;;5838664;23;20436;-81
2023/07/07 10:28:35;;;;;;;6.43;3.10;;;;;;;;;;4924574;29;20036;-81
2023/07/07 10:31:18;;;;;;;6.07;3.20;;;;;;;;;;4927529;29;20031;-81
2023/07/07 10:40:37;;;;;;;7.35;3.35;;;;;;;;;;4917199;29;20051;-82
2023/07/07 10:43:07;;;;;;;6.28;3.25;;;;;;;;;;4930708;29;20036;-82
2023/07/07 10:49:36;;;;;;;4.75;3.13;;;29.20;63.40;;;;;;4928419;29;19914;-79
2023/07/07 10:52:11;;;;;;;5.88;3.40;;;;;;;;;;4914783;29;20115;-82
2023/07/07 10:58:38;;;;;;;4.65;3.20;;;29.30;62.40;;;;;;4929553;29;20039;-80
2023/07/07 11:01:08;;;;;;;9.63;3.15;;;;;;;;;;4941387;29;20031;-81
2023/07/07 11:03:45;;;;;;;7.95;3.55;;;;;;;;;;4941864;29;20039;-82
2023/07/07 11:06:19;;;;;;;5.57;3.42;;;;;;;;;;4953917;28;20047;-81
2023/07/07 11:08:57;;;;;;;6.35;3.30;;;;;;;;;;4941142;29;20032;-83
2023/07/07 11:18:18;;;;;;;5.00;3.42;;;;;;;;;;4918676;29;20583;-85
2023/07/07 11:20:51;;;;;;;4.95;3.40;;;;;;;;;;4909544;29;20100;-83
2023/07/07 11:23:32;;;;;;;6.13;3.60;;;;;;;;;;4917752;29;20044;-82
2023/07/07 11:25:58;;;;;;;5.45;3.90;;;;;;;;;;4924508;29;20079;-82
2023/07/07 11:28:30;;;;;;;7.78;3.95;;;;;;;;;;4940937;29;20055;-82
2023/07/07 11:30:59;;;;;;;10.63;4.00;;;;;;;;;;4920323;29;20028;-85
2023/07/07 11:37:24;;;;;;;6.35;3.70;;;30.10;61.60;;;;;;4944419;29;20084;-81
2023/07/07 12:21:58;;;;;;;6.15;4.05;;;;;;;;;;4940235;23;20051;-81
2023/07/07 12:24:58;;;;;;;;;;;;;;;;;;;;;
2023/07/07 12:27:47;;;;;;;7.82;4.30;;;;;;;;;;4897870;29;20016;-85
2023/07/07 12:30:33;;;;;;;7.05;4.38;;;;;;;;;;4894189;29;20048;-83
2023/07/07 12:36:54;;;;;;;6.85;4.43;;;;;;;;;;4802902;29;20038;-83
2023/07/07 12:43:16;;;;;;;6.45;4.28;;;;;;;;;;4780808;29;20035;-83
2023/07/07 12:46:32;;;;;;;7.70;4.20;;;;;;;;;;4787923;29;20031;-84
2023/07/07 12:49:39;;;;;;;;;;;;;;;;;;;;;
2023/07/07 12:52:43;;;;;;;7.72;4.22;;;;;;;;;;4760423;29;20119;-83
2023/07/07 13:02:51;;;;;;;;;;;;;;;;;;;;;
2023/07/07 13:18:42;;;;;;;7.30;3.97;;;;;;;;;;4699892;30;20419;-84
2023/07/07 13:46:04;;;;;;;10.52;4.57;;;31.70;54.70;;;;;;4931830;29;20063;-84
2023/07/07 13:48:35;;;;;;;9.05;4.53;;;31.60;54.20;;;;;;4922779;28;20309;-86
2023/07/07 13:51:13;;;;;;;7.80;4.50;;;31.60;54.50;;;;;;4943598;29;20067;-85
2023/07/07 13:53:39;;;;;;;7.88;4.65;;;;;;;;;;4941200;29;20071;-85
2023/07/07 13:56:05;;;;;;;7.55;4.72;;;;;;;;;;4929400;29;20039;-84
2023/07/07 13:58:32;;;;;;;7.60;4.45;;;;;;;;;;4927612;29;20039;-83
2023/07/07 14:01:03;;;;;;;9.45;4.95;;;31.40;54.50;;;;;;4942942;29;20051;-84
2023/07/07 14:03:31;;;;;;;10.98;4.95;;;31.40;54.80;;;;;;4929464;29;20031;-84
2023/07/07 14:06:14;;;;;;;8.15;4.20;;;31.50;54.80;;;;;;4943089;29;20536;-84
2023/07/07 14:08:43;;;;;;;7.90;4.60;;;;;;;;;;4938707;29;20023;-84
2023/07/07 14:11:20;;;;;;;8.63;4.28;;;31.40;54.20;;;;;;4924750;29;20048;-84
2023/07/07 14:13:53;;;;;;;7.13;4.47;;;31.40;54.20;;;;;;4934799;29;20110;-85
2023/07/07 14:16:41;;;;;;;10.07;4.32;;;31.40;54.50;;;;;;4938425;29;20039;-83
2023/07/07 14:19:15;;;;;;;7.97;4.97;;;31.30;53.90;;;;;;4938955;29;20074;-85
2023/07/07 14:21:41;;;;;;;9.45;4.32;;;;;;;;;;4932825;29;20031;-84
2023/07/07 14:24:13;;;;;;;8.35;4.05;;;31.10;53.00;;;;;;4943104;28;20047;-85
2023/07/07 14:26:39;;;;;;;7.82;4.20;;;;;;;;;;4956733;28;20024;-86
2023/07/07 14:29:06;;;;;;;7.47;4.00;;;;;;;;;;4957049;28;20023;-86
2023/07/07 14:31:33;;;;;;;11.70;4.50;;;31.20;53.70;;;;;;4935170;29;20544;-86
2023/07/07 14:34:02;;;;;;;6.90;4.10;;;31.30;54.20;;;;;;4955994;28;20091;-86
2023/07/07 14:36:31;;;;;;;9.23;4.70;;;31.40;54.00;;;;;;4950161;29;20066;-86
2023/07/07 14:38:58;;;;;;;6.57;4.30;;;;;;;;;;4929135;29;20040;-83
2023/07/07 14:41:26;;;;;;;10.90;4.75;;;31.90;54.40;;;;;;4923986;29;20039;-83
2023/07/07 14:43:52;;;;;;;8.40;4.53;;;31.90;53.20;;;;;;4928208;29;20116;-84
2023/07/07 14:46:31;;;;;;;7.55;4.35;;;31.80;53.20;;;;;;4927835;29;20035;-84
2023/07/07 14:49:05;;;;;;;7.57;4.30;;;31.90;53.30;;;;;;4924511;29;20524;-83
2023/07/07 14:51:42;;;;;;;8.95;4.20;;;31.90;53.10;;;;;;4921845;29;20106;-85
2023/07/07 14:54:16;;;;;;;9.15;4.10;;;31.90;52.90;;;;;;4941093;29;20028;-84
2023/07/07 14:56:52;;;;;;;8.45;4.85;;;32.00;53.10;;;;;;4920685;29;20051;-84
2023/07/07 14:59:37;;;;;;;7.18;4.45;;;;;;;;;;4922133;29;20146;-85
2023/07/07 15:02:35;;;;;;;8.38;4.65;;;32.00;52.60;;;;;;4910554;29;20402;-83
2023/07/07 15:05:20;;;;;;;7.78;4.55;;;;;;;;;;4924009;29;20008;-83
2023/07/07 15:07:49;;;;;;;9.43;4.18;;;;;;;;;;4942180;29;20032;-85
2023/07/07 15:10:15;;;;;;;;;;;32.00;51.80;;;;;;4918794;29;20036;-84
2023/07/07 15:12:42;;;;;;;7.18;4.32;;;31.90;51.80;;;;;;4941922;29;19930;-84
2023/07/07 15:15:12;;;;;;;7.35;3.80;;;31.80;52.10;;;;;;4925920;29;20469;-84
2023/07/07 15:17:37;;;;;;;;;;;31.70;52.30;;;;;;4926467;29;20024;-82
2023/07/07 15:20:04;;;;;;;7.82;4.30;;;;;;;;;;4940677;29;19929;-82
2023/07/07 15:22:32;;;;;;;10.77;4.03;;;31.40;51.70;;;;;;4940585;29;20047;-83
2023/07/07 15:24:58;;;;;;;7.25;4.20;;;;;;;;;;4919070;29;20028;-83
2023/07/07 15:27:26;;;;;;;8.35;3.95;;;;;;;;;;4943213;29;20027;-81
2023/07/07 15:29:52;;;;;;;9.07;4.35;;;;;;;;;;4925675;29;20024;-84
2023/07/07 15:32:18;;;;;;;8.77;4.28;;;;;;;;;;4929131;29;20050;-83
2023/07/07 15:34:44;;;;;;;8.95;4.10;;;;;;;;;;4944285;29;20024;-82
2023/07/07 15:37:14;;;;;;;10.43;4.20;;;;;;;;;;4923148;29;20027;-83
2023/07/07 15:39:39;;;;;;;;;;;31.90;52.30;;;;;;4926269;29;20031;-84
2023/07/07 15:42:10;;;;;;;8.05;4.20;;;31.80;52.10;;;;;;4925487;29;19962;-83
2023/07/07 15:44:36;;;;;;;10.05;4.53;;;;;;;;;;4936798;29;20099;-83
2023/07/07 15:47:06;;;;;;;8.30;3.95;;;;;;;;;;4923869;29;20028;-83
2023/07/07 15:49:32;;;;;;;7.13;4.43;;;;;;;;;;4924094;29;20043;-82
2023/07/07 15:51:58;;;;;;;10.38;4.07;;;;;;;;;;4940189;29;20478;-81
2023/07/07 15:54:24;;;;;;;8.82;4.70;;;;;;;;;;4924588;29;20035;-82
2023/07/07 15:56:53;;;;;;;9.35;4.45;;;;;;;;;;4920938;29;20065;-82
2023/07/07 15:59:19;;;;;;;11.47;4.13;;;;;;;;;;4920618;29;20023;-82
2023/07/07 16:01:45;;;;;;;10.43;4.10;;;31.70;52.10;;;;;;4915877;29;20282;-82
2023/07/07 16:04:11;;;;;;;9.48;4.32;;;;;;;;;;4914183;29;20095;-82
2023/07/07 16:06:38;;;;;;;10.55;4.65;;;;;;;;;;4919663;29;20130;-82
2023/07/07 16:09:13;;;;;;;10.82;4.18;;;31.70;51.40;;;;;;4918623;29;20102;-84
2023/07/07 16:11:39;;;;;;;10.45;4.32;;;;;;;;;;4940057;29;20031;-81
2023/07/07 16:14:05;;;;;;;7.47;3.90;;;;;;;;;;4925613;29;20032;-84
2023/07/07 16:16:33;;;;;;;8.73;4.35;;;31.70;52.50;;;;;;4921554;29;20047;-83
2023/07/07 16:18:59;;;;;;;9.45;4.22;;;;;;;;;;4927046;29;20122;-84
2023/07/07 16:21:26;;;;;;;7.95;4.32;;;31.90;52.10;;;;;;4929339;29;20031;-84
2023/07/07 16:23:53;;;;;;;10.20;4.72;;;31.80;52.10;;;;;;4927658;29;20031;-84
2023/07/07 16:26:28;;;;;;;10.20;4.78;;;31.90;52.80;;;;;;4922715;29;20105;-83
2023/07/07 16:28:56;;;;;;;7.97;4.22;;;31.70;51.60;;;;;;4946620;29;20055;-83
2023/07/07 16:31:25;;;;;;;8.65;4.25;;;31.70;51.70;;;;;;4930318;29;20035;-83
2023/07/07 16:33:51;;;;;;;10.18;4.20;;;;;;;;;;4925646;29;20059;-82
2023/07/07 16:36:20;;;;;;;7.55;4.47;;;;;;;;;;4944945;29;20038;-82
2023/07/07 16:38:49;;;;;;;;;;;32.00;52.20;;;;;;4929077;29;20269;-81
2023/07/07 16:41:21;;;;;;;8.18;4.20;;;32.00;52.70;;;;;;4940736;29;20011;-83
2023/07/07 16:43:49;;;;;;;7.35;4.20;;;31.90;52.50;;;;;;4940614;29;20059;-81
2023/07/07 16:46:17;;;;;;;7.95;4.28;;;31.90;52.60;;;;;;4939383;29;20027;-80
2023/07/07 16:48:44;;;;;;;9.55;4.30;;;31.80;52.60;;;;;;4943405;29;20399;-82